Clovis ASC Data

Date Time Air Temperature Relative Humidity Dewpoint Windchill Heat Index Wind Speed Wind Dir. Rain Solar Radiation Soil Temperature Soil Temperature
2m 2m 3m 3m 5cm 10cm
US/Mountain F % F F F MPH deg in MJ/m^2 F F
max avg avg
2021-02-23 00:05:00 41.9 32.5 14.6 40.4 41.9 3.1 3.3 2.8 305.9 310.0 0.00 0.0000000 42.1 44.3
2021-02-23 00:10:00 41.3 31.4 13.2 41.3 41.3 1.9 3.1 2.6 293.0 299.6 0.00 0.0000000 41.9 44.2
2021-02-23 00:15:00 43.0 28.7 12.6 43.0 43.0 2.2 2.4 1.9 296.3 295.5 0.00 0.0000000 41.8 44.1
2021-02-23 00:20:00 43.8 27.6 12.5 43.8 43.8 2.6 2.8 2.3 263.7 275.4 0.00 0.0000000 41.7 44.0
2021-02-23 00:25:00 42.2 30.3 13.2 40.7 42.2 3.1 3.3 2.9 298.7 282.6 0.00 0.0000000 41.6 43.9
2021-02-23 00:30:00 41.3 31.3 13.2 41.3 41.3 2.6 3.1 2.8 307.2 304.6 0.00 0.0000000 41.4 43.8
2021-02-23 00:35:00 41.1 31.8 13.3 41.1 41.1 2.6 2.6 2.3 275.8 285.8 0.00 0.0000000 41.3 43.7
2021-02-23 00:40:00 39.7 35.3 14.5 39.7 39.7 3.0 3.1 2.8 260.9 266.3 0.00 0.0000000 41.2 43.6
2021-02-23 00:45:00 39.9 32.5 12.7 37.9 39.9 3.3 3.3 3.0 251.2 258.4 0.00 0.0000000 41.1 43.6
2021-02-23 00:50:00 39.6 33.8 13.4 37.2 39.6 3.7 4.0 3.7 261.5 256.2 0.00 0.0000000 41.0 43.5
2021-02-23 00:55:00 39.8 33.4 13.3 39.8 39.8 2.4 3.5 2.8 290.1 281.8 0.00 0.0000000 40.9 43.4
2021-02-23 01:00:00 40.9 31.7 13.0 40.9 40.9 2.2 2.8 2.4 277.2 282.7 0.00 0.0000000 40.8 43.3
2021-02-23 01:05:00 40.6 33.6 14.1 40.6 40.6 3.0 3.0 2.6 287.1 275.3 0.00 0.0000000 40.7 43.2
2021-02-23 01:10:00 40.3 35.5 15.1 37.7 40.3 4.0 4.0 3.5 263.3 264.7 0.00 0.0000000 40.6 43.1
2021-02-23 01:15:00 38.9 37.9 15.4 35.9 38.9 4.2 4.6 4.1 271.2 267.4 0.00 0.0000000 40.5 43.1
2021-02-23 01:20:00 38.4 37.3 14.5 35.8 38.4 3.7 4.2 3.8 291.5 283.3 0.00 0.0000000 40.4 43.0
2021-02-23 01:25:00 38.4 38.2 15.1 34.6 38.4 4.9 4.9 4.2 314.6 311.1 0.00 0.0000000 40.3 42.9
2021-02-23 01:30:00 36.7 41.6 15.5 32.5 36.7 5.1 5.6 5.3 296.4 309.1 0.00 0.0000000 40.2 42.8
2021-02-23 01:35:00 37.5 38.1 14.3 33.8 37.5 4.7 5.1 4.9 295.7 292.4 0.00 0.0000000 40.1 42.7
2021-02-23 01:40:00 38.4 37.0 14.3 35.6 38.4 3.8 4.9 4.5 283.5 293.8 0.00 0.0000000 40.0 42.7
2021-02-23 01:45:00 39.0 34.9 13.6 36.6 39.0 3.5 3.8 3.4 276.0 276.5 0.00 0.0000000 39.9 42.6
2021-02-23 01:50:00 40.3 34.1 14.3 38.2 40.3 3.5 3.8 3.7 301.1 287.4 0.00 0.0000000 39.8 42.5
2021-02-23 01:55:00 39.9 33.8 13.7 39.9 39.9 3.0 3.7 3.2 297.2 307.7 0.00 0.0000000 39.8 42.5
2021-02-23 02:00:00 39.4 35.9 14.6 37.1 39.4 3.5 3.7 3.3 272.1 284.1 0.00 0.0000000 39.7 42.4
2021-02-23 02:05:00 39.7 34.0 13.6 39.7 39.7 3.0 3.5 2.8 326.9 294.9 0.00 0.0000000 39.6 42.3
2021-02-23 02:10:00 39.2 35.9 14.4 37.1 39.2 3.3 3.8 3.3 330.6 342.2 0.00 0.0000000 39.5 42.2
2021-02-23 02:15:00 40.2 33.7 13.8 36.8 40.2 4.7 4.7 3.7 10.2 344.6 0.00 0.0000000 39.4 42.2
2021-02-23 02:20:00 36.8 40.3 14.8 36.8 36.8 3.0 5.1 2.9 335.0 356.8 0.00 0.0000000 39.3 42.1
2021-02-23 02:25:00 35.0 45.0 15.8 32.3 35.0 3.3 4.7 3.8 350.4 346.9 0.00 0.0000000 39.3 42.0
2021-02-23 02:30:00 35.3 43.6 15.3 35.3 35.3 3.0 3.5 2.9 329.7 347.4 0.00 0.0000000 39.2 42.0
2021-02-23 02:35:00 34.5 47.6 16.6 34.5 34.5 2.1 4.4 3.3 27.8 353.3 0.00 0.0000000 39.1 41.9
2021-02-23 02:40:00 34.7 42.7 14.3 34.7 34.7 1.3 2.2 1.3 317.4 15.8 0.00 0.0000000 39.0 41.8
2021-02-23 02:45:00 36.7 38.0 13.5 36.7 36.7 0.0 2.2 1.2 324.4 322.4 0.00 0.0000000 38.9 41.8
2021-02-23 02:50:00 38.4 36.2 13.9 38.4 38.4 1.9 1.9 0.6 299.1 303.7 0.00 0.0000000 38.8 41.7
2021-02-23 02:55:00 39.2 34.0 13.1 39.2 39.2 1.7 2.1 1.7 291.5 301.5 0.00 0.0000000 38.7 41.6
2021-02-23 03:00:00 39.7 33.6 13.3 39.7 39.7 2.2 2.2 1.8 306.1 298.6 0.00 0.0000000 38.6 41.5
2021-02-23 03:05:00 40.2 32.3 12.9 40.2 40.2 2.4 2.6 2.3 284.1 294.2 0.00 0.0000000 38.5 41.5
2021-02-23 03:10:00 40.5 32.2 13.1 40.5 40.5 1.7 2.4 2.0 285.9 279.2 0.00 0.0000000 38.5 41.4
2021-02-23 03:15:00 40.1 32.4 12.9 40.1 40.1 3.0 3.1 2.4 312.7 309.0 0.00 0.0000000 38.4 41.3
2021-02-23 03:20:00 40.4 32.2 13.0 38.6 40.4 3.1 3.3 3.2 294.5 302.9 0.00 0.0000000 38.3 41.3
2021-02-23 03:25:00 39.2 35.1 13.9 37.1 39.2 3.3 3.3 3.2 300.3 300.6 0.00 0.0000000 38.2 41.2
2021-02-23 03:30:00 37.7 37.2 13.8 34.4 37.7 4.2 4.2 3.7 272.8 287.7 0.00 0.0000000 38.1 41.1
2021-02-23 03:35:00 39.0 35.1 13.7 35.8 39.0 4.4 4.6 4.4 270.8 272.3 0.00 0.0000000 38.0 41.1
2021-02-23 03:40:00 37.2 38.6 14.3 34.4 37.2 3.7 4.4 3.9 280.9 276.7 0.00 0.0000000 38.0 41.0
2021-02-23 03:45:00 36.7 39.1 14.1 33.0 36.7 4.6 4.6 3.9 272.8 276.1 0.00 0.0000000 37.9 40.9
2021-02-23 03:50:00 36.2 40.3 14.3 32.2 36.2 4.7 4.9 4.7 273.3 273.1 0.00 0.0000000 37.8 40.9
2021-02-23 03:55:00 35.9 41.7 14.8 32.0 35.9 4.6 4.9 4.6 278.3 278.3 0.00 0.0000000 37.8 40.8
2021-02-23 04:00:00 36.0 41.2 14.6 32.5 36.0 4.2 4.6 4.3 272.8 274.8 0.00 0.0000000 37.7 40.8
2021-02-23 04:05:00 35.0 43.3 14.8 31.6 35.0 3.8 4.4 4.0 273.3 276.4 0.00 0.0000000 37.6 40.7
2021-02-23 04:10:00 34.8 42.9 14.5 31.5 34.8 3.8 4.0 3.9 272.5 273.3 0.00 0.0000000 37.5 40.6
2021-02-23 04:15:00 35.8 41.6 14.7 32.8 35.8 3.7 4.0 3.8 282.1 277.8 0.00 0.0000000 37.5 40.6
2021-02-23 04:20:00 37.3 38.8 14.5 34.6 37.3 3.7 3.8 3.6 275.7 280.8 0.00 0.0000000 37.4 40.5
2021-02-23 04:25:00 36.7 40.5 15.0 32.8 36.7 4.7 4.7 4.0 270.3 271.2 0.00 0.0000000 37.4 40.4
2021-02-23 04:30:00 34.7 45.8 15.9 30.0 34.7 5.3 5.5 5.1 256.1 259.6 0.00 0.0000000 37.3 40.4
2021-02-23 04:35:00 33.0 50.8 16.8 27.8 33.0 5.5 5.6 5.4 261.2 258.9 0.00 0.0000000 37.2 40.3
2021-02-23 04:40:00 32.6 51.1 16.5 28.5 32.6 4.2 5.5 4.9 268.8 263.4 0.00 0.0000000 37.2 40.3
2021-02-23 04:45:00 35.0 44.8 15.6 31.3 35.0 4.2 4.6 4.2 283.4 270.9 0.00 0.0000000 37.1 40.2
2021-02-23 04:50:00 35.1 45.7 16.2 31.2 35.1 4.4 4.7 4.5 273.7 276.0 0.00 0.0000000 37.0 40.2
2021-02-23 04:55:00 34.3 46.5 15.9 30.2 34.3 4.6 4.7 4.3 267.8 274.3 0.00 0.0000000 37.0 40.1
2021-02-23 05:00:00 33.3 48.3 15.9 28.3 33.3 5.3 5.5 4.4 258.6 264.1 0.00 0.0000000 36.9 40.0
2021-02-23 05:05:00 33.6 47.0 15.5 28.9 33.6 5.1 5.6 5.1 249.0 252.0 0.00 0.0000000 36.9 40.0
2021-02-23 05:10:00 34.5 45.8 15.7 29.7 34.5 5.3 5.3 5.0 248.7 249.9 0.00 0.0000000 36.8 39.9
2021-02-23 05:15:00 35.1 44.6 15.7 30.5 35.1 5.3 5.5 5.2 254.2 250.3 0.00 0.0000000 36.7 39.9
2021-02-23 05:20:00 33.9 47.3 15.9 28.9 33.9 5.5 5.6 5.4 255.5 252.2 0.00 0.0000000 36.7 39.8
2021-02-23 05:25:00 33.2 48.9 16.1 28.3 33.2 5.3 5.6 5.3 259.5 258.7 0.00 0.0000000 36.6 39.8
2021-02-23 05:30:00 33.0 49.0 15.9 27.7 33.0 5.6 5.6 5.3 256.5 259.7 0.00 0.0000000 36.6 39.7
2021-02-23 05:35:00 33.3 49.2 16.3 27.9 33.3 5.8 6.0 5.8 259.7 257.1 0.00 0.0000000 36.5 39.7
2021-02-23 05:40:00 32.4 51.3 16.4 27.1 32.4 5.5 6.2 5.8 257.2 258.2 0.00 0.0000000 36.5 39.6
2021-02-23 05:45:00 32.6 49.9 16.0 27.7 32.6 5.1 5.5 5.0 263.9 263.6 0.00 0.0000000 36.4 39.5
2021-02-23 05:50:00 32.8 50.1 16.2 28.0 32.8 4.9 5.1 4.9 262.0 263.1 0.00 0.0000000 36.4 39.5
2021-02-23 05:55:00 33.2 48.6 15.9 28.8 33.2 4.7 4.9 4.8 266.9 265.9 0.00 0.0000000 36.3 39.5
2021-02-23 06:00:00 33.4 48.9 16.2 29.0 33.4 4.7 4.9 4.6 267.1 268.5 0.00 0.0000000 36.3 39.4
2021-02-23 06:05:00 32.8 50.3 16.4 28.6 32.8 4.4 4.9 4.6 272.2 270.4 0.00 0.0000000 36.2 39.4
2021-02-23 06:10:00 31.7 53.3 16.6 27.4 31.7 4.2 4.7 4.5 268.3 271.1 0.00 0.0000000 36.2 39.3
2021-02-23 06:15:00 30.2 58.2 17.3 25.5 30.2 4.4 4.9 4.3 257.6 269.9 0.00 0.0000000 36.1 39.3
2021-02-23 06:20:00 30.6 57.2 17.2 25.3 30.6 5.1 5.5 4.8 269.9 264.0 0.00 0.0000000 36.0 39.2
2021-02-23 06:25:00 31.2 56.4 17.5 24.7 31.2 6.7 6.9 5.8 255.0 261.9 0.00 0.0003412 36.0 39.2
2021-02-23 06:30:00 31.7 55.4 17.5 25.2 31.7 6.9 7.4 6.6 261.0 259.9 0.00 0.0015488 35.9 39.1
2021-02-23 06:35:00 31.8 55.7 17.7 26.0 31.8 6.0 6.7 5.9 267.4 260.5 0.00 0.0060252 35.9 39.1
2021-02-23 06:40:00 31.6 56.4 17.8 26.5 31.6 5.1 6.3 5.4 267.8 269.7 0.00 0.0117221 35.8 39.0
2021-02-23 06:45:00 31.4 57.5 18.1 25.6 31.4 5.8 6.2 5.3 266.1 268.0 0.00 0.0171482 35.8 39.0
2021-02-23 06:50:00 31.9 56.7 18.2 25.8 31.9 6.3 6.5 6.0 251.5 254.2 0.00 0.0222970 35.8 38.9
2021-02-23 06:55:00 32.9 54.6 18.3 27.0 32.9 6.3 6.3 5.7 239.7 248.6 0.00 0.0278714 35.8 38.9
2021-02-23 07:00:00 34.1 53.6 19.0 28.7 34.1 6.0 6.7 6.0 256.5 252.2 0.00 0.0338432 35.8 38.8
2021-02-23 07:05:00 35.0 52.6 19.4 29.0 35.0 7.1 7.6 6.9 245.4 256.5 0.00 0.0374470 35.8 38.8
2021-02-23 07:10:00 35.3 51.2 19.1 29.0 35.3 7.8 8.7 7.9 248.5 252.4 0.00 0.0261647 35.8 38.8
2021-02-23 07:15:00 35.6 51.8 19.6 29.4 35.6 7.8 9.0 7.7 253.4 254.1 0.00 0.0417366 35.9 38.7
2021-02-23 07:20:00 35.6 52.5 19.9 29.2 35.6 8.0 8.3 7.5 263.1 254.0 0.00 0.0260060 35.9 38.7
2021-02-23 07:25:00 35.8 53.3 20.4 30.1 35.8 6.9 8.5 7.4 253.1 255.7 0.00 0.0451407 36.0 38.7
2021-02-23 07:30:00 37.2 49.9 20.2 30.5 37.2 9.2 9.2 8.0 264.1 255.4 0.00 0.0449199 36.1 38.6
2021-02-23 07:35:00 37.7 48.9 20.2 31.2 37.7 9.2 10.5 8.8 260.0 254.6 0.00 0.0346987 36.2 38.6
2021-02-23 07:40:00 37.7 49.1 20.3 31.2 37.7 9.2 10.1 9.0 251.5 249.8 0.00 0.0438729 36.3 38.6
2021-02-23 07:45:00 38.8 46.9 20.2 31.0 38.8 12.6 12.6 10.0 258.1 251.5 0.00 0.0662565 36.4 38.6
2021-02-23 07:50:00 38.8 49.2 21.3 32.1 38.8 9.9 14.2 11.4 261.0 251.4 0.00 0.0741805 36.6 38.6
2021-02-23 07:55:00 38.5 49.6 21.3 30.1 38.5 14.4 15.8 13.2 229.4 243.7 0.00 0.0886275 36.7 38.7
2021-02-23 08:00:00 38.9 50.2 22.0 31.3 38.9 12.4 15.5 12.9 254.1 244.7 0.00 0.0935909 36.9 38.7
2021-02-23 08:05:00 39.6 47.5 21.3 31.3 39.6 14.9 17.8 14.2 246.7 246.4 0.00 0.0981112 37.1 38.7
2021-02-23 08:10:00 39.5 48.5 21.7 31.7 39.5 13.5 17.1 14.2 244.6 245.4 0.00 0.1029759 37.4 38.7
2021-02-23 08:15:00 40.2 47.9 22.0 32.5 40.2 13.7 17.6 13.4 246.5 246.0 0.00 0.1079865 37.6 38.8
2021-02-23 08:20:00 41.1 48.6 23.1 34.5 41.1 11.0 16.5 13.2 239.8 246.2 0.00 0.1129463 37.9 38.8
2021-02-23 08:25:00 41.6 48.1 23.4 34.9 41.6 11.9 17.2 13.3 244.4 245.8 0.00 0.1177804 38.2 38.9
2021-02-23 08:30:00 43.6 44.1 23.2 36.5 43.6 14.7 14.7 12.4 239.7 241.2 0.00 0.1226848 38.5 39.0
2021-02-23 08:35:00 44.2 43.4 23.4 37.4 44.2 14.4 17.2 15.3 264.3 245.8 0.00 0.1275166 38.8 39.0
2021-02-23 08:40:00 46.0 41.1 23.7 38.7 46.0 18.1 18.1 14.4 227.5 239.4 0.00 0.1323152 39.1 39.1
2021-02-23 08:45:00 47.6 34.9 21.2 40.2 47.6 21.0 21.0 15.1 259.1 239.0 0.00 0.1330950 39.4 39.2
2021-02-23 08:50:00 48.6 34.4 21.8 43.3 48.6 13.3 19.6 15.5 246.9 247.0 0.00 0.1421644 39.8 39.3
2021-02-23 08:55:00 49.5 31.7 20.6 43.3 49.5 18.1 19.4 15.2 238.7 243.9 0.00 0.1470371 40.2 39.4
2021-02-23 09:00:00 50.6 31.6 21.6 50.6 50.6 14.6 20.1 15.6 253.0 243.1 0.00 0.1517391 40.6 39.5
2021-02-23 09:05:00 51.6 29.6 20.8 51.6 51.6 10.6 18.3 15.0 239.1 243.1 0.00 0.1566343 41.0 39.6
2021-02-23 09:10:00 53.2 28.3 21.2 53.2 53.2 14.6 20.6 13.5 245.1 237.6 0.00 0.1609378 41.4 39.8
2021-02-23 09:15:00 53.5 26.5 19.9 53.5 53.5 15.8 20.3 17.7 240.0 239.2 0.00 0.1629808 41.8 39.9
2021-02-23 09:20:00 55.1 24.1 19.0 55.1 55.1 21.0 22.8 17.1 236.6 237.9 0.00 0.1658380 42.2 40.1
2021-02-23 09:25:00 55.4 22.9 18.0 55.4 55.4 22.3 24.4 20.1 237.2 240.8 0.00 0.1741153 42.6 40.2
2021-02-23 09:30:00 56.3 23.5 19.5 56.3 56.3 14.9 23.0 18.6 230.3 243.7 0.00 0.1858629 43.1 40.4
2021-02-23 09:35:00 56.6 21.5 17.6 56.6 56.6 21.7 24.6 20.4 237.3 244.3 0.00 0.1869577 43.5 40.5
2021-02-23 09:40:00 57.2 21.3 17.9 57.2 57.2 24.2 26.2 20.4 231.4 239.5 0.00 0.1888430 43.9 40.7
2021-02-23 09:45:00 57.1 22.4 19.0 57.1 57.1 20.3 25.5 20.4 236.7 239.1 0.00 0.1850396 44.4 40.9
2021-02-23 09:50:00 57.7 20.5 17.4 57.7 57.7 23.9 25.5 20.4 244.1 242.4 0.00 0.2002157 44.7 41.0
2021-02-23 09:55:00 57.9 21.1 18.3 57.9 57.9 19.6 24.2 20.8 252.9 242.8 0.00 0.2061466 45.1 41.2
2021-02-23 10:00:00 57.5 20.9 17.7 57.5 57.5 25.3 25.3 20.8 226.4 242.7 0.00 0.1884103 45.4 41.3
2021-02-23 10:05:00 57.4 23.1 20.0 57.4 57.4 17.4 25.1 20.8 243.0 239.3 0.00 0.1894425 45.7 41.5
2021-02-23 10:10:00 57.8 21.6 18.8 57.8 57.8 21.0 26.7 20.5 238.5 234.8 0.00 0.2137998 46.1 41.6
2021-02-23 10:15:00 58.2 20.9 18.3 58.2 58.2 24.8 25.3 21.2 237.5 236.4 0.00 0.2090914 46.4 41.8
2021-02-23 10:20:00 58.0 21.5 18.8 58.0 58.0 24.0 26.4 22.0 222.4 236.5 0.00 0.2174007 46.8 42.0
2021-02-23 10:25:00 58.5 22.0 19.8 58.5 58.5 19.4 26.9 22.7 209.7 237.4 0.00 0.2191809 47.2 42.2
2021-02-23 10:30:00 58.9 21.3 19.3 58.9 58.9 22.6 26.9 22.3 242.8 239.2 0.00 0.2215662 47.6 42.4
2021-02-23 10:35:00 58.9 20.7 18.7 58.9 58.9 25.8 26.9 22.4 240.6 245.1 0.00 0.2224841 48.0 42.6
2021-02-23 10:40:00 59.2 20.7 19.0 59.2 59.2 23.3 28.1 23.0 231.6 240.1 0.00 0.2265391 48.5 42.8
2021-02-23 10:45:00 59.3 22.1 20.6 59.3 59.3 18.5 26.7 20.7 241.1 237.8 0.00 0.2287990 48.8 43.0
2021-02-23 10:50:00 60.4 21.0 20.2 60.4 60.4 19.4 22.6 19.6 242.7 238.7 0.00 0.2313645 49.2 43.2
2021-02-23 10:55:00 60.0 21.6 20.6 60.0 60.0 16.7 24.9 20.5 224.0 235.9 0.00 0.2338074 49.6 43.4
2021-02-23 11:00:00 60.5 20.8 20.1 60.5 60.5 19.8 24.4 20.2 246.5 238.4 0.00 0.2363875 50.1 43.7
2021-02-23 11:05:00 61.0 18.7 18.0 61.0 61.0 26.0 30.1 22.1 240.5 233.7 0.00 0.2394623 50.5 43.9
2021-02-23 11:10:00 61.7 18.3 18.1 61.7 61.7 27.2 27.2 22.6 237.0 234.6 0.00 0.2445288 50.9 44.1
2021-02-23 11:15:00 62.2 19.9 20.5 62.2 62.2 26.7 26.9 21.0 235.0 236.5 0.00 0.2537843 51.3 44.3
2021-02-23 11:20:00 61.8 19.2 19.3 61.8 61.8 20.3 27.6 22.5 248.6 232.4 0.00 0.2597011 51.7 44.6
2021-02-23 11:25:00 61.2 20.1 19.9 61.2 61.2 19.0 29.4 24.2 247.0 230.7 0.00 0.1764485 52.1 44.8
2021-02-23 11:30:00 60.5 19.2 18.1 60.5 60.5 24.2 28.0 22.9 244.3 238.2 0.00 0.1182507 52.5 45.0
2021-02-23 11:35:00 61.1 19.2 18.7 61.1 61.1 29.9 29.9 22.8 241.7 237.1 0.00 0.1711506 52.8 45.2
2021-02-23 11:40:00 63.0 19.1 20.1 63.0 63.0 19.4 29.6 23.8 233.3 237.2 0.00 0.2685916 53.0 45.5
2021-02-23 11:45:00 62.9 17.7 18.3 62.9 62.9 27.2 33.2 25.6 252.8 235.9 0.00 0.2542128 53.2 45.6
2021-02-23 11:50:00 63.6 18.1 19.4 63.6 63.6 20.6 29.2 25.0 246.6 243.9 0.00 0.2503051 53.4 45.8
2021-02-23 11:55:00 64.7 17.0 18.9 64.7 64.7 29.6 30.5 24.5 228.8 236.4 0.00 0.2492995 53.7 46.0
2021-02-23 12:00:00 65.4 16.2 18.2 65.4 65.4 26.2 30.3 25.4 250.6 235.7 0.00 0.2490478 54.0 46.2
2021-02-23 12:05:00 66.2 16.0 18.6 66.2 66.2 20.8 26.7 21.5 259.3 242.3 0.00 0.2485644 54.3 46.4
2021-02-23 12:10:00 66.3 15.4 17.7 66.3 66.3 23.3 28.5 23.1 251.7 239.3 0.00 0.2476379 54.6 46.6
2021-02-23 12:15:00 67.1 14.8 17.6 67.1 67.1 22.1 30.8 24.1 245.3 242.1 0.00 0.2480537 55.0 46.8
2021-02-23 12:20:00 66.8 14.8 17.3 66.8 66.8 26.9 34.4 26.8 238.4 244.0 0.00 0.2468307 55.3 46.9
2021-02-23 12:25:00 67.2 14.9 17.8 67.2 67.2 26.7 36.7 26.9 235.7 233.1 0.00 0.2456438 55.6 47.1
2021-02-23 12:30:00 67.4 14.5 17.3 67.4 67.4 28.9 34.0 27.9 236.4 232.3 0.00 0.2462712 55.9 47.3
2021-02-23 12:35:00 68.0 14.3 17.4 68.0 68.0 22.6 36.0 28.7 229.4 234.8 0.00 0.2451084 56.3 47.5
2021-02-23 12:40:00 68.0 13.4 16.0 68.0 68.0 30.5 33.0 26.1 238.4 231.7 0.00 0.2441874 56.6 47.7
2021-02-23 12:45:00 68.7 13.1 16.0 68.7 68.7 30.8 31.7 26.5 232.6 233.8 0.00 0.2413307 56.9 47.9
2021-02-23 12:50:00 69.1 12.3 15.0 69.1 69.1 27.4 33.2 25.5 236.3 238.4 0.00 0.2407503 57.1 48.1
2021-02-23 12:55:00 69.0 12.5 15.2 69.0 69.0 29.4 33.5 28.2 235.4 236.6 0.00 0.2398224 57.5 48.3
2021-02-23 13:00:00 69.3 11.7 14.0 69.3 69.3 28.9 32.4 26.9 253.2 242.9 0.00 0.2388630 57.8 48.6
2021-02-23 13:05:00 68.8 11.6 13.4 68.8 68.8 28.5 34.6 28.8 252.5 237.2 0.00 0.2371624 58.0 48.8
2021-02-23 13:10:00 68.8 12.5 15.0 68.8 68.8 28.5 34.0 27.8 236.6 237.8 0.00 0.2359125 58.3 49.0
2021-02-23 13:15:00 68.5 12.4 14.6 68.5 68.5 26.7 33.3 27.6 236.3 235.7 0.00 0.2334742 58.6 49.2
2021-02-23 13:20:00 68.9 11.8 13.8 68.9 68.9 28.5 36.4 27.5 252.9 236.4 0.00 0.2321288 58.8 49.4
2021-02-23 13:25:00 69.2 12.5 15.3 69.2 69.2 26.2 33.7 28.3 243.6 242.6 0.00 0.2299863 59.1 49.6
2021-02-23 13:30:00 69.2 11.7 13.9 69.2 69.2 26.7 34.0 29.0 242.1 234.6 0.00 0.2287710 59.3 49.8
2021-02-23 13:35:00 69.5 12.5 15.5 69.5 69.5 26.2 33.2 27.5 230.1 238.3 0.00 0.2261815 59.5 50.0
2021-02-23 13:40:00 68.9 11.7 13.6 68.9 68.9 28.5 35.1 29.0 232.2 233.0 0.00 0.2237160 59.7 50.2
2021-02-23 13:45:00 69.6 12.0 14.6 69.6 69.6 28.7 36.2 28.7 240.2 232.9 0.00 0.2207477 59.9 50.4
2021-02-23 13:50:00 69.2 12.2 14.7 69.2 69.2 25.1 38.7 31.0 237.4 236.2 0.00 0.2175758 60.1 50.6
2021-02-23 13:55:00 69.0 12.2 14.6 69.0 69.0 25.6 38.5 30.1 236.7 230.0 0.00 0.2148248 60.3 50.8
2021-02-23 14:00:00 69.7 11.4 13.7 69.7 69.7 27.6 37.3 29.1 233.9 232.2 0.00 0.2113001 60.5 51.0
2021-02-23 14:05:00 69.9 10.6 12.0 69.9 69.9 27.6 35.8 29.5 241.8 243.2 0.00 0.2090312 60.6 51.2
2021-02-23 14:10:00 70.2 11.6 14.4 70.2 70.2 30.3 34.8 29.1 241.9 236.4 0.00 0.2060920 60.8 51.3
2021-02-23 14:15:00 70.2 10.0 10.9 70.2 70.2 27.1 32.8 29.1 256.3 242.5 0.00 0.2024484 60.9 51.5
2021-02-23 14:20:00 70.3 10.5 12.2 70.3 70.3 24.9 33.2 28.1 240.2 233.7 0.00 0.1991539 61.1 51.7
2021-02-23 14:25:00 70.5 10.6 12.6 70.5 70.5 23.5 31.4 26.2 256.8 241.1 0.00 0.1946105 61.2 51.8
2021-02-23 14:30:00 70.9 8.6 8.1 70.9 70.9 31.9 35.1 28.8 249.6 241.8 0.00 0.1917490 61.3 52.0
2021-02-23 14:35:00 70.8 9.2 9.7 70.8 70.8 30.1 35.1 29.3 234.0 238.6 0.00 0.1890494 61.5 52.2
2021-02-23 14:40:00 70.6 9.4 9.9 70.6 70.6 28.1 31.4 26.5 253.8 244.5 0.00 0.1834059 61.6 52.3
2021-02-23 14:45:00 70.5 10.2 11.7 70.5 70.5 23.3 31.5 26.7 231.4 239.5 0.00 0.1789542 61.7 52.4
2021-02-23 14:50:00 71.0 9.5 10.4 71.0 71.0 29.4 32.4 27.0 225.3 236.8 0.00 0.1769684 61.8 52.6
2021-02-23 14:55:00 68.2 10.5 10.6 68.2 68.2 22.3 32.3 26.8 247.6 240.9 0.00 0.0530325 61.9 52.7
2021-02-23 15:00:00 67.8 10.1 9.5 67.8 67.8 29.2 30.3 25.7 237.0 233.5 0.00 0.0584413 62.0 52.9
2021-02-23 15:05:00 67.4 11.1 11.3 67.4 67.4 21.0 27.8 23.3 224.6 235.0 0.00 0.0664583 61.9 53.0
2021-02-23 15:10:00 69.2 9.2 8.5 69.2 69.2 32.4 32.4 24.2 244.4 237.7 0.00 0.1236155 61.8 53.1
2021-02-23 15:15:00 70.2 8.6 7.7 70.2 70.2 31.4 36.2 30.3 248.7 243.4 0.00 0.1393091 61.6 53.2
2021-02-23 15:20:00 68.8 8.9 7.3 68.8 68.8 28.9 33.5 27.9 241.2 256.3 0.00 0.0552449 61.4 53.3
2021-02-23 15:25:00 67.9 10.5 10.3 67.9 67.9 22.8 31.7 25.7 238.7 238.2 0.00 0.0552209 61.3 53.3
2021-02-23 15:30:00 68.0 10.2 9.8 68.0 68.0 21.7 25.5 21.2 242.1 236.8 0.00 0.0659368 61.1 53.4
2021-02-23 15:35:00 68.8 9.3 8.4 68.8 68.8 22.1 29.4 24.5 247.9 248.0 0.00 0.0785050 60.9 53.4
2021-02-23 15:40:00 69.0 9.3 8.5 69.0 69.0 24.6 31.5 25.3 249.1 250.4 0.00 0.1050938 60.7 53.5
2021-02-23 15:45:00 68.6 9.2 8.1 68.6 68.6 25.5 31.2 27.2 230.3 246.2 0.00 0.0979180 60.6 53.5
2021-02-23 15:50:00 69.4 8.5 6.8 69.4 69.4 27.6 34.9 28.0 246.5 247.9 0.00 0.1419492 60.4 53.5
2021-02-23 15:55:00 68.6 8.9 7.3 68.6 68.6 25.6 31.7 26.8 245.7 249.5 0.00 0.0953600 60.3 53.5
2021-02-23 16:00:00 69.1 7.9 5.0 69.1 69.1 28.5 33.2 26.1 258.8 247.9 0.00 0.1038023 60.2 53.5
2021-02-23 16:05:00 67.9 8.6 5.8 67.9 67.9 30.6 34.9 28.5 263.6 253.4 0.00 0.0538462 60.1 53.5
2021-02-23 16:10:00 68.0 8.1 4.7 68.0 68.0 30.1 34.6 27.8 254.6 251.1 0.00 0.0811431 60.1 53.5
2021-02-23 16:15:00 68.8 8.5 6.3 68.8 68.8 29.2 33.3 29.5 243.6 246.4 0.00 0.1190108 60.0 53.5
2021-02-23 16:20:00 68.6 8.4 5.8 68.6 68.6 31.5 34.4 29.3 253.8 247.2 0.00 0.0980214 59.9 53.5
2021-02-23 16:25:00 67.5 8.8 6.2 67.5 67.5 28.9 35.7 28.8 243.1 248.0 0.00 0.0426672 59.8 53.5
2021-02-23 16:30:00 66.6 9.4 6.9 66.6 66.6 26.5 28.7 24.2 240.1 249.5 0.00 0.0290921 59.7 53.6
2021-02-23 16:35:00 66.1 9.6 7.1 66.1 66.1 23.2 29.8 24.0 252.5 249.0 0.00 0.0236805 59.6 53.6
2021-02-23 16:40:00 66.0 10.1 7.9 66.0 66.0 19.2 27.4 23.3 245.2 250.2 0.00 0.0303153 59.4 53.6
2021-02-23 16:45:00 65.6 10.2 8.0 65.6 65.6 17.2 23.7 19.2 243.1 247.9 0.00 0.0327014 59.2 53.6
2021-02-23 16:50:00 65.8 10.8 9.3 65.8 65.8 14.0 20.1 16.8 261.4 253.7 0.00 0.0563328 59.0 53.6
2021-02-23 16:55:00 65.4 11.7 10.8 65.4 65.4 22.6 22.8 18.1 258.7 259.1 0.00 0.0366091 58.8 53.5
2021-02-23 17:00:00 65.1 12.4 12.0 65.1 65.1 24.9 27.1 21.7 249.8 260.8 0.00 0.0392791 58.6 53.5
2021-02-23 17:05:00 64.4 13.2 12.8 64.4 64.4 19.4 26.5 20.5 267.5 260.4 0.00 0.0158900 58.4 53.5
2021-02-23 17:10:00 63.9 13.6 13.1 63.9 63.9 19.2 25.5 20.1 254.1 260.0 0.00 0.0135957 58.1 53.4
2021-02-23 17:15:00 63.4 14.7 14.4 63.4 63.4 15.1 21.5 17.7 259.9 256.3 0.00 0.0121960 58.0 53.4
2021-02-23 17:20:00 63.3 14.6 14.2 63.3 63.3 19.4 21.4 18.8 258.7 258.7 0.00 0.0157842 57.7 53.3
2021-02-23 17:25:00 62.8 15.0 14.4 62.8 62.8 17.1 20.5 17.2 261.1 259.5 0.00 0.0086662 57.5 53.3
2021-02-23 17:30:00 62.4 15.1 14.2 62.4 62.4 16.7 20.8 17.2 258.7 260.3 0.00 0.0052248 57.3 53.3
2021-02-23 17:35:00 61.6 15.7 14.5 61.6 61.6 15.3 19.0 15.6 258.0 261.6 0.00 0.0029600 57.1 53.2
2021-02-23 17:40:00 60.7 16.0 14.1 60.7 60.7 14.9 15.8 13.7 253.5 255.6 0.00 0.0014976 56.9 53.1
2021-02-23 17:45:00 60.7 15.7 13.8 60.7 60.7 16.9 17.8 14.2 256.0 256.6 0.00 0.0004098 56.6 53.1
2021-02-23 17:50:00 60.3 16.3 14.3 60.3 60.3 14.6 17.1 14.4 256.2 252.2 0.00 0.0000000 56.4 53.0
2021-02-23 17:55:00 60.2 16.4 14.3 60.2 60.2 16.4 19.6 15.7 258.8 245.3 0.00 0.0000000 56.1 52.9
2021-02-23 18:00:00 59.8 16.6 14.4 59.8 59.8 16.7 18.7 15.9 244.9 249.0 0.00 0.0000000 55.8 52.9
2021-02-23 18:05:00 59.3 17.0 14.5 59.3 59.3 14.7 16.5 14.8 245.4 246.8 0.00 0.0000000 55.6 52.8
2021-02-23 18:10:00 58.7 17.5 14.6 58.7 58.7 13.3 16.7 13.9 243.5 246.8 0.00 0.0000000 55.3 52.7
2021-02-23 18:15:00 58.3 18.2 15.2 58.3 58.3 13.5 16.4 13.8 246.5 244.3 0.00 0.0000000 55.1 52.6
2021-02-23 18:20:00 57.8 18.4 15.1 57.8 57.8 15.8 17.4 13.8 249.1 242.4 0.00 0.0000000 54.9 52.5
2021-02-23 18:25:00 57.7 18.5 15.0 57.7 57.7 14.7 16.2 13.9 254.3 247.8 0.00 0.0000000 54.6 52.4
2021-02-23 18:30:00 57.5 18.5 15.0 57.5 57.5 13.7 15.3 13.3 263.3 248.7 0.00 0.0000000 54.4 52.3
2021-02-23 18:35:00 57.6 18.3 14.7 57.6 57.6 17.4 17.4 13.7 256.6 250.7 0.00 0.0000000 54.2 52.2
2021-02-23 18:40:00 58.2 17.8 14.6 58.2 58.2 17.1 18.5 15.6 249.8 249.4 0.00 0.0000000 53.9 52.2
2021-02-23 18:45:00 57.7 18.5 15.1 57.7 57.7 16.4 17.2 15.1 241.5 254.3 0.00 0.0000000 53.7 52.1
2021-02-23 18:50:00 57.0 19.1 15.2 57.0 57.0 14.6 16.2 14.3 244.2 251.7 0.00 0.0000000 53.5 52.0
2021-02-23 18:55:00 56.9 19.3 15.3 56.9 56.9 16.9 17.6 15.4 255.6 249.5 0.00 0.0000000 53.3 51.9
2021-02-23 19:00:00 56.6 19.8 15.6 56.6 56.6 16.9 18.9 15.3 251.9 249.2 0.00 0.0000000 53.1 51.8
2021-02-23 19:05:00 56.1 19.9 15.4 56.1 56.1 16.4 16.9 14.8 262.8 252.1 0.00 0.0000000 52.9 51.7
2021-02-23 19:10:00 56.2 19.8 15.4 56.2 56.2 14.9 17.8 15.1 254.4 254.2 0.00 0.0000000 52.8 51.6
2021-02-23 19:15:00 56.1 20.2 15.7 56.1 56.1 11.9 17.1 14.4 244.2 255.2 0.00 0.0000000 52.6 51.5
2021-02-23 19:20:00 55.5 20.7 15.9 55.5 55.5 11.2 15.8 12.6 251.4 252.4 0.00 0.0000000 52.4 51.4
2021-02-23 19:25:00 54.7 21.6 16.1 54.7 54.7 11.9 14.7 12.1 231.2 244.1 0.00 0.0000000 52.2 51.3
2021-02-23 19:30:00 53.4 23.8 17.3 53.4 53.4 9.9 13.9 11.6 224.9 237.8 0.00 0.0000000 52.1 51.2
2021-02-23 19:35:00 52.2 25.0 17.4 52.2 52.2 12.4 13.5 11.3 233.9 233.4 0.00 0.0000000 51.9 51.1
2021-02-23 19:40:00 51.5 25.6 17.3 51.5 51.5 11.5 12.6 10.8 225.9 236.6 0.00 0.0000000 51.7 51.0
2021-02-23 19:45:00 51.3 25.2 16.8 51.3 51.3 12.4 13.0 11.1 232.5 236.9 0.00 0.0000000 51.5 50.9
2021-02-23 19:50:00 51.1 25.3 16.8 51.1 51.1 10.3 12.2 10.8 251.0 240.5 0.00 0.0000000 51.3 50.9
2021-02-23 19:55:00 51.2 25.0 16.5 51.2 51.2 10.8 13.3 11.3 239.9 241.3 0.00 0.0000000 51.1 50.8
2021-02-23 20:00:00 51.7 23.5 15.6 51.7 51.7 12.8 13.5 11.3 245.6 243.9 0.00 0.0000000 50.9 50.7
2021-02-23 20:05:00 52.3 23.0 15.5 52.3 52.3 13.0 14.6 11.9 248.8 244.6 0.00 0.0000000 50.7 50.6
2021-02-23 20:10:00 52.5 22.6 15.3 52.5 52.5 12.1 14.0 12.4 249.4 246.1 0.00 0.0000000 50.5 50.5
2021-02-23 20:15:00 52.6 21.9 14.8 52.6 52.6 13.9 15.6 12.8 236.5 244.7 0.00 0.0000000 50.4 50.4
2021-02-23 20:20:00 52.6 22.1 14.9 52.6 52.6 12.8 14.2 11.9 254.0 245.5 0.00 0.0000000 50.2 50.3
2021-02-23 20:25:00 52.2 22.5 15.0 52.2 52.2 10.6 13.1 11.3 256.2 248.1 0.00 0.0000000 50.0 50.2
2021-02-23 20:30:00 51.8 22.3 14.4 51.8 51.8 11.2 13.9 11.6 252.4 251.5 0.00 0.0000000 49.9 50.1
2021-02-23 20:35:00 51.3 22.1 13.8 51.3 51.3 12.8 13.1 11.3 250.5 252.6 0.00 0.0000000 49.7 50.0
2021-02-23 20:40:00 50.9 22.4 13.7 50.9 50.9 11.5 13.9 12.2 237.6 249.5 0.00 0.0000000 49.6 49.9
2021-02-23 20:45:00 49.7 24.1 14.4 45.6 49.7 10.1 13.1 10.3 249.1 255.6 0.00 0.0000000 49.4 49.8
2021-02-23 20:50:00 48.4 25.5 14.6 44.1 48.4 9.6 11.0 9.9 248.0 259.7 0.00 0.0000000 49.2 49.7
2021-02-23 20:55:00 47.1 27.3 15.1 42.8 47.1 9.2 10.5 9.3 268.4 262.9 0.00 0.0000000 49.1 49.6
2021-02-23 21:00:00 46.5 27.9 15.0 41.7 46.5 9.7 10.6 9.5 269.8 267.9 0.00 0.0000000 48.9 49.5
2021-02-23 21:05:00 46.0 28.0 14.7 41.3 46.0 9.4 10.1 9.1 264.1 263.3 0.00 0.0000000 48.8 49.4
2021-02-23 21:10:00 46.1 27.4 14.3 40.4 46.1 12.2 12.2 10.4 251.9 257.7 0.00 0.0000000 48.6 49.4
2021-02-23 21:15:00 46.4 27.7 14.8 40.7 46.4 12.4 13.0 11.4 242.2 254.9 0.00 0.0000000 48.5 49.2
2021-02-23 21:20:00 46.2 27.7 14.6 40.4 46.2 12.8 14.0 12.3 248.1 249.2 0.00 0.0000000 48.3 49.2
2021-02-23 21:25:00 46.2 27.7 14.6 40.1 46.2 13.5 13.7 12.3 244.5 249.5 0.00 0.0000000 48.1 49.1
2021-02-23 21:30:00 46.1 27.9 14.7 40.4 46.1 12.4 13.9 12.5 241.4 249.1 0.00 0.0000000 48.0 49.0
2021-02-23 21:35:00 46.1 27.9 14.7 40.1 46.1 13.0 14.4 12.9 242.1 248.4 0.00 0.0000000 47.9 48.9
2021-02-23 21:40:00 46.0 28.0 14.6 40.5 46.0 11.7 14.7 12.9 254.4 249.5 0.00 0.0000000 47.7 48.8
2021-02-23 21:45:00 46.3 27.6 14.6 40.1 46.3 14.2 14.6 13.2 254.1 248.2 0.00 0.0000000 47.6 48.7
2021-02-23 21:50:00 46.7 27.4 14.8 40.9 46.7 13.0 14.4 13.0 241.8 251.6 0.00 0.0000000 47.4 48.6
2021-02-23 21:55:00 46.5 27.4 14.7 41.0 46.5 12.1 14.6 12.7 255.7 252.6 0.00 0.0000000 47.3 48.5
2021-02-23 22:00:00 46.1 27.8 14.6 41.1 46.1 10.3 14.4 12.1 255.7 253.6 0.00 0.0000000 47.2 48.4
2021-02-23 22:05:00 45.6 28.3 14.6 40.3 45.6 10.8 13.0 11.0 254.2 256.2 0.00 0.0000000 47.1 48.3
2021-02-23 22:10:00 45.1 28.9 14.7 39.6 45.1 11.0 12.2 10.7 246.7 254.0 0.00 0.0000000 47.0 48.2
2021-02-23 22:15:00 44.8 28.9 14.3 38.2 44.8 14.0 14.0 12.0 251.3 245.5 0.00 0.0000000 46.8 48.1
2021-02-23 22:20:00 45.5 27.6 13.9 39.3 45.5 13.5 14.7 13.5 248.4 243.0 0.00 0.0000000 46.7 48.1
2021-02-23 22:25:00 45.9 27.2 13.9 40.2 45.9 12.2 14.6 12.8 260.1 248.1 0.00 0.0000000 46.6 48.0
2021-02-23 22:30:00 45.4 28.6 14.7 40.6 45.4 9.4 12.8 11.0 267.8 264.4 0.00 0.0000000 46.5 47.9
2021-02-23 22:35:00 45.6 29.0 15.1 40.3 45.6 10.6 11.0 9.5 327.1 287.8 0.00 0.0000000 46.4 47.8
2021-02-23 22:40:00 48.7 24.1 13.6 42.7 48.7 16.4 19.4 14.8 262.2 295.6 0.00 0.0000000 46.3 47.8
2021-02-23 22:45:00 48.9 25.0 14.6 43.8 48.9 13.0 18.5 15.1 269.6 276.6 0.00 0.0000000 46.2 47.7
2021-02-23 22:50:00 47.0 27.6 15.2 41.8 47.0 11.5 14.0 12.1 255.4 261.4 0.00 0.0000000 46.1 47.6
2021-02-23 22:55:00 48.1 26.4 15.1 42.6 48.1 13.3 14.6 12.4 265.8 266.4 0.00 0.0000000 46.0 47.5
2021-02-23 23:00:00 49.0 26.1 15.6 44.6 49.0 10.5 13.7 12.0 270.3 270.5 0.00 0.0000000 46.0 47.4
2021-02-23 23:05:00 49.5 26.4 16.3 45.4 49.5 9.9 14.2 11.1 303.1 286.7 0.00 0.0000000 45.9 47.4
2021-02-23 23:10:00 45.8 29.2 15.5 42.0 45.8 7.2 9.7 7.0 340.7 342.2 0.00 0.0000000 45.8 47.3
2021-02-23 23:15:00 46.1 29.7 16.1 42.0 46.1 8.1 10.3 9.0 293.2 317.9 0.00 0.0000000 45.8 47.2
2021-02-23 23:20:00 45.1 32.2 17.2 41.1 45.1 7.4 9.4 8.0 306.9 301.1 0.00 0.0000000 45.8 47.1
2021-02-23 23:25:00 43.6 34.1 17.2 39.1 43.6 7.8 8.7 7.5 316.9 310.0 0.00 0.0000000 45.7 47.1
2021-02-23 23:30:00 42.2 35.7 16.9 36.9 42.2 8.7 9.2 8.3 333.6 325.5 0.00 0.0000000 45.6 47.0
2021-02-23 23:35:00 42.5 35.2 16.9 36.9 42.5 9.6 9.9 9.1 318.0 314.7 0.00 0.0000000 45.5 47.0
2021-02-23 23:40:00 45.0 32.5 17.3 39.1 45.0 12.1 13.1 10.4 308.6 310.1 0.00 0.0000000 45.4 46.9
2021-02-23 23:45:00 45.8 32.2 17.7 39.2 45.8 14.9 16.5 12.5 314.8 314.4 0.00 0.0000000 45.3 46.9
2021-02-23 23:50:00 47.5 30.5 18.0 40.9 47.5 17.1 17.1 14.9 306.1 312.9 0.00 0.0000000 45.2 46.8
2021-02-23 23:55:00 49.7 28.5 18.3 44.0 49.7 16.4 17.4 15.5 323.8 312.9 0.00 0.0000000 45.1 46.7
2021-02-24 00:00:00 49.3 29.6 18.8 44.0 49.3 14.0 18.1 15.6 334.8 325.2 0.00 0.0000000 45.1 46.7

Data is courtesy of the NM Climate Center. DO NOT USE IN LEGAL PROCEEDINGS.